Airfield :
LOGIN :

Register | Disclaimer

   EN    FR    IT 

 










Legend :    VFR   Marginal VFR   IFR   Intensive IFR   Very Intensive IFR
Visi :
Ceiling :
>= 8 km
>= 3000ft
5 to 8 km
1000 to 3000 ft
1500m to 5 km
500 to 1000 ft
800 to 1500m
200 to 500 ft
< 800m
< 200 ft
Symbols :   Thunderstorms  Fog  Heavy snow  Heavy precipitations  Wind > 20 kt
SIGMETs :     Misc.  Thunderstorms  Icing  Turbulence  Mountain Waves  Volcanic Ashes






- Airport Elevation : -13 ft
- IATA code : LEY


EHLE - Lelystad

CURRENT METAR :
  • 100355Z AUTO 11008KT 9999 NSC 15/13 Q0997

EXPIRED METARs :
  • 100325Z AUTO 10007KT 9999 NSC 15/13 Q0997
  • 100255Z AUTO 13005KT 090V170 9999 NSC 15/13 Q0998
  • 100225Z AUTO 11008KT 9999 NSC 15/13 Q0998
  • 100155Z AUTO 11008KT 9999 NSC 16/13 Q0998
  • 100125Z AUTO 11006KT 9999 NSC 16/13 Q0999

TAF TAF EHLE
Valid from the 10 at 00:00 until the 11 at 06:00 UTC


092312Z 1000/1106 16007KT CAVOK
TEMPO 1007/1011 24015G27KT 6000 RA -SHRA SCT010 BKN015 SCT018CB
BECMG 1008/1010 22012KT SCT020 BKN030
PROB30
TEMPO 1011/1019 6000 -SHRA SCT020CB
BECMG 1017/1020 VRB03KT CAVOK



MET'MAP, your aeronautical weather chart ! - Copyright ORBIFLY December 2007 - Disclaimer

ORBIFLY MET'MAP TEAM :

Programming & Development : Alexandra Zaïnal
Concept & original design : Baudouin d'Aumeries
Assistance for programming : Marc-Olivier Méhu
Technical & hardware support : Manuel Goepfert

Contact : metmap@orbifly.com




SOURCES & CREDITS :

   NOAA